sensor_id;sensor_type;location;lat;lon;timestamp;P1;durP1;ratioP1;P2;durP2;ratioP2
77038;SDS011;65970;50.476;4.840;2023-07-31T00:04:13;5.82;;;2.83;;
77038;SDS011;65970;50.476;4.840;2023-07-31T00:09:14;3.72;;;2.03;;
77038;SDS011;65970;50.476;4.840;2023-07-31T00:14:14;4.30;;;2.08;;
77038;SDS011;65970;50.476;4.840;2023-07-31T00:19:15;3.58;;;2.03;;
77038;SDS011;65970;50.476;4.840;2023-07-31T00:24:16;3.90;;;2.08;;
77038;SDS011;65970;50.476;4.840;2023-07-31T00:29:16;7.72;;;3.10;;
77038;SDS011;65970;50.476;4.840;2023-07-31T00:34:17;4.72;;;1.92;;
77038;SDS011;65970;50.476;4.840;2023-07-31T00:39:17;8.23;;;2.38;;
77038;SDS011;65970;50.476;4.840;2023-07-31T00:44:18;6.40;;;2.00;;
77038;SDS011;65970;50.476;4.840;2023-07-31T00:49:18;7.00;;;2.08;;
77038;SDS011;65970;50.476;4.840;2023-07-31T00:54:20;2.72;;;1.90;;
77038;SDS011;65970;50.476;4.840;2023-07-31T00:59:20;4.82;;;1.90;;
77038;SDS011;65970;50.476;4.840;2023-07-31T01:04:21;3.53;;;2.35;;
77038;SDS011;65970;50.476;4.840;2023-07-31T01:09:28;3.05;;;1.92;;
77038;SDS011;65970;50.476;4.840;2023-07-31T01:15:08;3.55;;;2.42;;
77038;SDS011;65970;50.476;4.840;2023-07-31T01:30:44;7.75;;;2.88;;
77038;SDS011;65970;50.476;4.840;2023-07-31T01:35:47;3.42;;;1.88;;
77038;SDS011;65970;50.476;4.840;2023-07-31T01:40:52;4.85;;;1.95;;
77038;SDS011;65970;50.476;4.840;2023-07-31T01:45:53;6.70;;;2.50;;
77038;SDS011;65970;50.476;4.840;2023-07-31T01:50:54;3.00;;;1.83;;
77038;SDS011;65970;50.476;4.840;2023-07-31T01:55:54;1.77;;;1.40;;
77038;SDS011;65970;50.476;4.840;2023-07-31T02:00:55;4.65;;;2.35;;
77038;SDS011;65970;50.476;4.840;2023-07-31T02:05:55;5.80;;;1.63;;
77038;SDS011;65970;50.476;4.840;2023-07-31T02:10:56;2.55;;;1.60;;
77038;SDS011;65970;50.476;4.840;2023-07-31T02:15:56;3.50;;;1.83;;
77038;SDS011;65970;50.476;4.840;2023-07-31T02:20:57;3.33;;;2.08;;
77038;SDS011;65970;50.476;4.840;2023-07-31T02:25:58;5.28;;;1.67;;
77038;SDS011;65970;50.476;4.840;2023-07-31T02:30:58;3.75;;;1.90;;
77038;SDS011;65970;50.476;4.840;2023-07-31T02:35:59;3.00;;;1.83;;
77038;SDS011;65970;50.476;4.840;2023-07-31T02:40:59;2.25;;;1.52;;
77038;SDS011;65970;50.476;4.840;2023-07-31T02:46:00;3.25;;;1.63;;
77038;SDS011;65970;50.476;4.840;2023-07-31T02:51:00;3.72;;;2.00;;
77038;SDS011;65970;50.476;4.840;2023-07-31T02:56:01;5.05;;;1.52;;
77038;SDS011;65970;50.476;4.840;2023-07-31T03:01:01;2.88;;;1.77;;
77038;SDS011;65970;50.476;4.840;2023-07-31T03:06:02;2.00;;;1.38;;
77038;SDS011;65970;50.476;4.840;2023-07-31T03:11:02;4.50;;;1.77;;
77038;SDS011;65970;50.476;4.840;2023-07-31T03:16:03;3.60;;;2.08;;
77038;SDS011;65970;50.476;4.840;2023-07-31T03:21:04;5.07;;;1.50;;
77038;SDS011;65970;50.476;4.840;2023-07-31T03:26:06;3.08;;;1.48;;
77038;SDS011;65970;50.476;4.840;2023-07-31T03:31:07;2.50;;;1.70;;
77038;SDS011;65970;50.476;4.840;2023-07-31T03:36:08;1.75;;;1.38;;
77038;SDS011;65970;50.476;4.840;2023-07-31T03:41:08;3.92;;;1.52;;
77038;SDS011;65970;50.476;4.840;2023-07-31T03:46:09;2.42;;;1.38;;
77038;SDS011;65970;50.476;4.840;2023-07-31T03:51:09;3.97;;;1.83;;
77038;SDS011;65970;50.476;4.840;2023-07-31T03:56:10;2.28;;;1.65;;
77038;SDS011;65970;50.476;4.840;2023-07-31T04:01:11;4.50;;;1.88;;
77038;SDS011;65970;50.476;4.840;2023-07-31T04:06:11;3.53;;;1.50;;
77038;SDS011;65970;50.476;4.840;2023-07-31T04:11:12;3.38;;;1.60;;
77038;SDS011;65970;50.476;4.840;2023-07-31T04:16:13;4.65;;;1.98;;
77038;SDS011;65970;50.476;4.840;2023-07-31T04:21:13;1.90;;;1.23;;
77038;SDS011;65970;50.476;4.840;2023-07-31T04:26:14;2.72;;;1.33;;
77038;SDS011;65970;50.476;4.840;2023-07-31T04:31:14;1.77;;;1.33;;
77038;SDS011;65970;50.476;4.840;2023-07-31T04:36:15;2.42;;;1.55;;
77038;SDS011;65970;50.476;4.840;2023-07-31T04:41:16;2.28;;;1.45;;
77038;SDS011;65970;50.476;4.840;2023-07-31T04:46:16;4.13;;;1.42;;
77038;SDS011;65970;50.476;4.840;2023-07-31T04:51:17;3.95;;;1.30;;
77038;SDS011;65970;50.476;4.840;2023-07-31T04:56:17;3.08;;;1.50;;
77038;SDS011;65970;50.476;4.840;2023-07-31T05:01:18;3.35;;;1.23;;
77038;SDS011;65970;50.476;4.840;2023-07-31T05:06:18;3.10;;;1.75;;
77038;SDS011;65970;50.476;4.840;2023-07-31T05:11:19;2.17;;;1.48;;
77038;SDS011;65970;50.476;4.840;2023-07-31T05:16:19;3.80;;;1.40;;
77038;SDS011;65970;50.476;4.840;2023-07-31T05:21:20;1.75;;;1.20;;
77038;SDS011;65970;50.476;4.840;2023-07-31T05:26:20;2.08;;;1.38;;
77038;SDS011;65970;50.476;4.840;2023-07-31T05:31:21;2.20;;;1.17;;
77038;SDS011;65970;50.476;4.840;2023-07-31T05:36:21;3.88;;;1.60;;
77038;SDS011;65970;50.476;4.840;2023-07-31T05:41:22;2.47;;;1.20;;
77038;SDS011;65970;50.476;4.840;2023-07-31T05:46:23;2.78;;;1.48;;
77038;SDS011;65970;50.476;4.840;2023-07-31T05:51:23;4.18;;;1.90;;
77038;SDS011;65970;50.476;4.840;2023-07-31T05:56:24;4.40;;;1.38;;
77038;SDS011;65970;50.476;4.840;2023-07-31T06:01:25;3.15;;;1.27;;
77038;SDS011;65970;50.476;4.840;2023-07-31T06:06:25;3.38;;;1.25;;
77038;SDS011;65970;50.476;4.840;2023-07-31T06:11:26;1.85;;;1.23;;
77038;SDS011;65970;50.476;4.840;2023-07-31T06:16:26;2.30;;;1.25;;
77038;SDS011;65970;50.476;4.840;2023-07-31T06:21:27;1.77;;;1.52;;
77038;SDS011;65970;50.476;4.840;2023-07-31T06:26:27;5.00;;;1.30;;
77038;SDS011;65970;50.476;4.840;2023-07-31T06:31:28;2.90;;;1.27;;
77038;SDS011;65970;50.476;4.840;2023-07-31T06:36:29;5.63;;;1.30;;
77038;SDS011;65970;50.476;4.840;2023-07-31T06:41:29;4.63;;;1.70;;
77038;SDS011;65970;50.476;4.840;2023-07-31T06:46:30;2.70;;;1.90;;
77038;SDS011;65970;50.476;4.840;2023-07-31T06:51:30;2.70;;;1.35;;
77038;SDS011;65970;50.476;4.840;2023-07-31T06:56:31;2.70;;;1.55;;
77038;SDS011;65970;50.476;4.840;2023-07-31T07:01:31;2.33;;;1.38;;
77038;SDS011;65970;50.476;4.840;2023-07-31T07:06:32;4.43;;;1.60;;
77038;SDS011;65970;50.476;4.840;2023-07-31T07:11:32;2.08;;;1.30;;
77038;SDS011;65970;50.476;4.840;2023-07-31T07:16:33;3.08;;;1.42;;
77038;SDS011;65970;50.476;4.840;2023-07-31T07:21:33;1.70;;;1.27;;
77038;SDS011;65970;50.476;4.840;2023-07-31T07:26:34;2.60;;;1.75;;
77038;SDS011;65970;50.476;4.840;2023-07-31T07:31:34;4.53;;;1.85;;
77038;SDS011;65970;50.476;4.840;2023-07-31T07:36:35;4.07;;;1.73;;
77038;SDS011;65970;50.476;4.840;2023-07-31T07:41:35;1.98;;;1.10;;
77038;SDS011;65970;50.476;4.840;2023-07-31T07:46:36;3.28;;;1.60;;
77038;SDS011;65970;50.476;4.840;2023-07-31T07:51:36;5.97;;;1.23;;
77038;SDS011;65970;50.476;4.840;2023-07-31T07:56:37;1.88;;;1.20;;
77038;SDS011;65970;50.476;4.840;2023-07-31T08:01:38;5.88;;;1.83;;
77038;SDS011;65970;50.476;4.840;2023-07-31T08:06:38;1.67;;;1.35;;
77038;SDS011;65970;50.476;4.840;2023-07-31T08:11:39;1.80;;;1.33;;
77038;SDS011;65970;50.476;4.840;2023-07-31T08:16:39;2.92;;;1.40;;
77038;SDS011;65970;50.476;4.840;2023-07-31T08:21:40;5.13;;;1.58;;
77038;SDS011;65970;50.476;4.840;2023-07-31T08:26:40;1.83;;;1.45;;
77038;SDS011;65970;50.476;4.840;2023-07-31T08:31:41;3.85;;;1.45;;
77038;SDS011;65970;50.476;4.840;2023-07-31T08:36:42;3.67;;;1.75;;
77038;SDS011;65970;50.476;4.840;2023-07-31T08:41:42;1.45;;;1.05;;
77038;SDS011;65970;50.476;4.840;2023-07-31T08:46:43;2.15;;;1.38;;
77038;SDS011;65970;50.476;4.840;2023-07-31T08:51:44;2.22;;;1.00;;
77038;SDS011;65970;50.476;4.840;2023-07-31T08:56:48;2.65;;;1.20;;
77038;SDS011;65970;50.476;4.840;2023-07-31T09:01:50;1.08;;;0.90;;
77038;SDS011;65970;50.476;4.840;2023-07-31T09:06:57;1.13;;;0.40;;
77038;SDS011;65970;50.476;4.840;2023-07-31T09:12:01;1.55;;;0.93;;
77038;SDS011;65970;50.476;4.840;2023-07-31T09:17:02;1.50;;;0.75;;
77038;SDS011;65970;50.476;4.840;2023-07-31T09:22:03;1.27;;;0.90;;
77038;SDS011;65970;50.476;4.840;2023-07-31T09:27:05;2.25;;;1.10;;
77038;SDS011;65970;50.476;4.840;2023-07-31T09:32:14;1.35;;;0.82;;
77038;SDS011;65970;50.476;4.840;2023-07-31T09:37:16;1.58;;;1.30;;
77038;SDS011;65970;50.476;4.840;2023-07-31T09:42:26;2.70;;;1.48;;
77038;SDS011;65970;50.476;4.840;2023-07-31T09:47:27;1.58;;;1.40;;
77038;SDS011;65970;50.476;4.840;2023-07-31T09:52:28;1.90;;;1.45;;
77038;SDS011;65970;50.476;4.840;2023-07-31T09:57:29;4.40;;;2.17;;
77038;SDS011;65970;50.476;4.840;2023-07-31T10:02:30;2.08;;;1.67;;
77038;SDS011;65970;50.476;4.840;2023-07-31T10:07:35;6.80;;;1.58;;
77038;SDS011;65970;50.476;4.840;2023-07-31T10:12:37;2.63;;;1.75;;
77038;SDS011;65970;50.476;4.840;2023-07-31T10:17:38;3.80;;;1.63;;
77038;SDS011;65970;50.476;4.840;2023-07-31T10:22:39;4.72;;;2.42;;
77038;SDS011;65970;50.476;4.840;2023-07-31T10:27:41;4.38;;;3.45;;
77038;SDS011;65970;50.476;4.840;2023-07-31T10:32:42;3.40;;;1.73;;
77038;SDS011;65970;50.476;4.840;2023-07-31T10:37:44;4.68;;;1.88;;
77038;SDS011;65970;50.476;4.840;2023-07-31T10:42:46;2.58;;;1.58;;
77038;SDS011;65970;50.476;4.840;2023-07-31T10:47:48;3.92;;;2.08;;
77038;SDS011;65970;50.476;4.840;2023-07-31T10:52:49;5.80;;;2.58;;
77038;SDS011;65970;50.476;4.840;2023-07-31T10:57:52;3.55;;;1.88;;
77038;SDS011;65970;50.476;4.840;2023-07-31T11:08:07;4.13;;;2.53;;
77038;SDS011;65970;50.476;4.840;2023-07-31T11:13:17;4.53;;;2.22;;
77038;SDS011;65970;50.476;4.840;2023-07-31T11:18:18;4.35;;;2.05;;
77038;SDS011;65970;50.476;4.840;2023-07-31T11:23:18;3.63;;;1.77;;
77038;SDS011;65970;50.476;4.840;2023-07-31T11:28:19;3.67;;;1.70;;
77038;SDS011;65970;50.476;4.840;2023-07-31T11:33:20;2.28;;;1.92;;
77038;SDS011;65970;50.476;4.840;2023-07-31T11:38:21;2.95;;;1.92;;
77038;SDS011;65970;50.476;4.840;2023-07-31T11:43:29;4.75;;;1.90;;
77038;SDS011;65970;50.476;4.840;2023-07-31T11:48:32;3.88;;;2.28;;
77038;SDS011;65970;50.476;4.840;2023-07-31T11:53:44;3.15;;;1.60;;
77038;SDS011;65970;50.476;4.840;2023-07-31T11:58:49;3.20;;;2.05;;
77038;SDS011;65970;50.476;4.840;2023-07-31T12:03:53;3.90;;;2.47;;
77038;SDS011;65970;50.476;4.840;2023-07-31T12:09:00;3.47;;;2.30;;
77038;SDS011;65970;50.476;4.840;2023-07-31T12:14:04;4.85;;;2.60;;
77038;SDS011;65970;50.476;4.840;2023-07-31T12:19:04;4.80;;;2.25;;
77038;SDS011;65970;50.476;4.840;2023-07-31T12:24:07;6.78;;;2.42;;
77038;SDS011;65970;50.476;4.840;2023-07-31T12:29:07;3.00;;;2.17;;
77038;SDS011;65970;50.476;4.840;2023-07-31T12:34:15;5.28;;;2.42;;
77038;SDS011;65970;50.476;4.840;2023-07-31T12:39:16;3.25;;;2.63;;
77038;SDS011;65970;50.476;4.840;2023-07-31T12:44:17;5.13;;;2.40;;
77038;SDS011;65970;50.476;4.840;2023-07-31T12:49:17;6.05;;;3.08;;
77038;SDS011;65970;50.476;4.840;2023-07-31T12:54:18;4.75;;;2.35;;
77038;SDS011;65970;50.476;4.840;2023-07-31T12:59:18;6.43;;;2.60;;
77038;SDS011;65970;50.476;4.840;2023-07-31T13:04:19;4.10;;;2.35;;
77038;SDS011;65970;50.476;4.840;2023-07-31T13:09:19;8.70;;;2.90;;
77038;SDS011;65970;50.476;4.840;2023-07-31T13:14:20;4.53;;;2.33;;
77038;SDS011;65970;50.476;4.840;2023-07-31T13:19:21;7.38;;;2.13;;
77038;SDS011;65970;50.476;4.840;2023-07-31T13:24:21;4.90;;;2.45;;
77038;SDS011;65970;50.476;4.840;2023-07-31T13:29:22;5.03;;;2.38;;
77038;SDS011;65970;50.476;4.840;2023-07-31T13:34:22;3.72;;;1.90;;
77038;SDS011;65970;50.476;4.840;2023-07-31T13:39:23;4.20;;;1.90;;
77038;SDS011;65970;50.476;4.840;2023-07-31T13:44:24;5.88;;;1.40;;
77038;SDS011;65970;50.476;4.840;2023-07-31T13:49:24;1.73;;;0.95;;
77038;SDS011;65970;50.476;4.840;2023-07-31T13:54:25;3.65;;;1.30;;
77038;SDS011;65970;50.476;4.840;2023-07-31T13:59:25;2.22;;;0.90;;
77038;SDS011;65970;50.476;4.840;2023-07-31T14:04:26;11.30;;;1.60;;
77038;SDS011;65970;50.476;4.840;2023-07-31T14:09:26;4.10;;;1.27;;
77038;SDS011;65970;50.476;4.840;2023-07-31T14:14:27;3.05;;;1.27;;
77038;SDS011;65970;50.476;4.840;2023-07-31T14:19:27;1.35;;;1.10;;
77038;SDS011;65970;50.476;4.840;2023-07-31T14:24:28;1.73;;;1.17;;
77038;SDS011;65970;50.476;4.840;2023-07-31T14:29:29;1.52;;;1.10;;
77038;SDS011;65970;50.476;4.840;2023-07-31T14:34:30;3.13;;;1.50;;
77038;SDS011;65970;50.476;4.840;2023-07-31T14:39:30;1.40;;;0.88;;
77038;SDS011;65970;50.476;4.840;2023-07-31T14:44:31;2.60;;;1.30;;
77038;SDS011;65970;50.476;4.840;2023-07-31T14:49:31;3.75;;;1.25;;
77038;SDS011;65970;50.476;4.840;2023-07-31T14:54:32;2.03;;;1.50;;
77038;SDS011;65970;50.476;4.840;2023-07-31T14:59:32;8.60;;;2.28;;
77038;SDS011;65970;50.476;4.840;2023-07-31T15:04:33;4.18;;;1.40;;
77038;SDS011;65970;50.476;4.840;2023-07-31T15:09:33;1.38;;;1.23;;
77038;SDS011;65970;50.476;4.840;2023-07-31T15:14:34;1.27;;;0.95;;
77038;SDS011;65970;50.476;4.840;2023-07-31T15:19:34;1.65;;;0.93;;
77038;SDS011;65970;50.476;4.840;2023-07-31T15:24:35;3.13;;;0.98;;
77038;SDS011;65970;50.476;4.840;2023-07-31T15:29:35;1.48;;;1.25;;
77038;SDS011;65970;50.476;4.840;2023-07-31T15:34:36;2.05;;;0.90;;
77038;SDS011;65970;50.476;4.840;2023-07-31T15:39:37;1.83;;;0.90;;
77038;SDS011;65970;50.476;4.840;2023-07-31T15:44:37;2.00;;;1.10;;
77038;SDS011;65970;50.476;4.840;2023-07-31T15:49:38;4.30;;;0.77;;
77038;SDS011;65970;50.476;4.840;2023-07-31T15:54:38;0.82;;;0.75;;
77038;SDS011;65970;50.476;4.840;2023-07-31T15:59:39;0.90;;;0.73;;
77038;SDS011;65970;50.476;4.840;2023-07-31T16:04:39;1.52;;;0.88;;
77038;SDS011;65970;50.476;4.840;2023-07-31T16:09:40;1.33;;;1.02;;
77038;SDS011;65970;50.476;4.840;2023-07-31T16:14:41;0.93;;;0.60;;
77038;SDS011;65970;50.476;4.840;2023-07-31T16:19:41;3.05;;;0.75;;
77038;SDS011;65970;50.476;4.840;2023-07-31T16:24:42;2.90;;;0.63;;
77038;SDS011;65970;50.476;4.840;2023-07-31T16:29:42;1.13;;;0.60;;
77038;SDS011;65970;50.476;4.840;2023-07-31T16:34:43;2.00;;;0.85;;
77038;SDS011;65970;50.476;4.840;2023-07-31T16:39:43;1.80;;;0.85;;
77038;SDS011;65970;50.476;4.840;2023-07-31T16:44:44;0.50;;;0.50;;
77038;SDS011;65970;50.476;4.840;2023-07-31T16:49:44;1.20;;;1.05;;
77038;SDS011;65970;50.476;4.840;2023-07-31T16:54:45;1.95;;;0.70;;
77038;SDS011;65970;50.476;4.840;2023-07-31T16:59:46;0.47;;;0.47;;
77038;SDS011;65970;50.476;4.840;2023-07-31T17:04:47;1.33;;;0.68;;
77038;SDS011;65970;50.476;4.840;2023-07-31T17:09:47;0.93;;;0.68;;
77038;SDS011;65970;50.476;4.840;2023-07-31T17:14:48;0.65;;;0.40;;
77038;SDS011;65970;50.476;4.840;2023-07-31T17:19:49;1.45;;;0.50;;
77038;SDS011;65970;50.476;4.840;2023-07-31T17:24:49;3.38;;;0.55;;
77038;SDS011;65970;50.476;4.840;2023-07-31T17:29:50;0.80;;;0.80;;
77038;SDS011;65970;50.476;4.840;2023-07-31T17:34:51;1.02;;;0.63;;
77038;SDS011;65970;50.476;4.840;2023-07-31T17:39:51;0.80;;;0.65;;
77038;SDS011;65970;50.476;4.840;2023-07-31T17:44:52;0.47;;;0.47;;
77038;SDS011;65970;50.476;4.840;2023-07-31T17:49:52;1.23;;;0.75;;
77038;SDS011;65970;50.476;4.840;2023-07-31T17:54:53;0.95;;;0.73;;
77038;SDS011;65970;50.476;4.840;2023-07-31T17:59:53;0.47;;;0.43;;
77038;SDS011;65970;50.476;4.840;2023-07-31T18:04:54;0.50;;;0.50;;
77038;SDS011;65970;50.476;4.840;2023-07-31T18:09:55;0.32;;;0.32;;
77038;SDS011;65970;50.476;4.840;2023-07-31T18:14:55;1.95;;;0.50;;
77038;SDS011;65970;50.476;4.840;2023-07-31T18:19:56;0.85;;;0.60;;
77038;SDS011;65970;50.476;4.840;2023-07-31T18:24:56;0.65;;;0.40;;
77038;SDS011;65970;50.476;4.840;2023-07-31T18:29:57;1.63;;;0.50;;
77038;SDS011;65970;50.476;4.840;2023-07-31T18:34:57;0.75;;;0.60;;
77038;SDS011;65970;50.476;4.840;2023-07-31T18:39:58;1.25;;;0.60;;
77038;SDS011;65970;50.476;4.840;2023-07-31T18:44:58;0.52;;;0.52;;
77038;SDS011;65970;50.476;4.840;2023-07-31T18:49:59;1.15;;;0.50;;
77038;SDS011;65970;50.476;4.840;2023-07-31T18:55:00;0.40;;;0.30;;
77038;SDS011;65970;50.476;4.840;2023-07-31T19:00:00;0.60;;;0.50;;
77038;SDS011;65970;50.476;4.840;2023-07-31T19:05:01;1.17;;;0.38;;
77038;SDS011;65970;50.476;4.840;2023-07-31T19:10:02;3.17;;;0.50;;
77038;SDS011;65970;50.476;4.840;2023-07-31T19:15:03;0.35;;;0.32;;
77038;SDS011;65970;50.476;4.840;2023-07-31T19:20:04;0.45;;;0.45;;
77038;SDS011;65970;50.476;4.840;2023-07-31T19:25:05;0.50;;;0.40;;
77038;SDS011;65970;50.476;4.840;2023-07-31T19:30:06;3.00;;;0.70;;
77038;SDS011;65970;50.476;4.840;2023-07-31T19:35:07;1.73;;;0.50;;
77038;SDS011;65970;50.476;4.840;2023-07-31T19:40:08;0.45;;;0.30;;
77038;SDS011;65970;50.476;4.840;2023-07-31T19:45:09;0.40;;;0.40;;
77038;SDS011;65970;50.476;4.840;2023-07-31T19:50:10;0.93;;;0.70;;
77038;SDS011;65970;50.476;4.840;2023-07-31T19:55:10;0.57;;;0.35;;
77038;SDS011;65970;50.476;4.840;2023-07-31T20:00:11;0.50;;;0.35;;
77038;SDS011;65970;50.476;4.840;2023-07-31T20:05:12;0.43;;;0.43;;
77038;SDS011;65970;50.476;4.840;2023-07-31T20:10:13;0.63;;;0.30;;
77038;SDS011;65970;50.476;4.840;2023-07-31T20:15:20;1.65;;;0.55;;
77038;SDS011;65970;50.476;4.840;2023-07-31T20:20:22;1.42;;;0.30;;
77038;SDS011;65970;50.476;4.840;2023-07-31T20:25:23;1.17;;;0.65;;
77038;SDS011;65970;50.476;4.840;2023-07-31T20:30:24;1.60;;;0.43;;
77038;SDS011;65970;50.476;4.840;2023-07-31T20:35:24;1.10;;;0.47;;
77038;SDS011;65970;50.476;4.840;2023-07-31T20:40:25;1.95;;;0.40;;
77038;SDS011;65970;50.476;4.840;2023-07-31T20:45:26;0.85;;;0.35;;
77038;SDS011;65970;50.476;4.840;2023-07-31T20:50:28;3.17;;;0.30;;
77038;SDS011;65970;50.476;4.840;2023-07-31T20:55:28;1.85;;;0.22;;
77038;SDS011;65970;50.476;4.840;2023-07-31T21:00:29;0.10;;;0.10;;
77038;SDS011;65970;50.476;4.840;2023-07-31T21:05:29;0.40;;;0.20;;
77038;SDS011;65970;50.476;4.840;2023-07-31T21:10:30;1.00;;;0.20;;
77038;SDS011;65970;50.476;4.840;2023-07-31T21:15:31;0.50;;;0.30;;
77038;SDS011;65970;50.476;4.840;2023-07-31T21:20:31;0.20;;;0.20;;
77038;SDS011;65970;50.476;4.840;2023-07-31T21:25:32;0.20;;;0.20;;
77038;SDS011;65970;50.476;4.840;2023-07-31T21:30:33;0.75;;;0.25;;
77038;SDS011;65970;50.476;4.840;2023-07-31T21:35:34;0.10;;;0.10;;
77038;SDS011;65970;50.476;4.840;2023-07-31T21:40:34;0.17;;;0.17;;
77038;SDS011;65970;50.476;4.840;2023-07-31T21:45:35;0.03;;;0.03;;
77038;SDS011;65970;50.476;4.840;2023-07-31T21:50:35;0.10;;;0.10;;
77038;SDS011;65970;50.476;4.840;2023-07-31T21:55:36;0.57;;;0.30;;
77038;SDS011;65970;50.476;4.840;2023-07-31T22:00:37;0.30;;;0.30;;
77038;SDS011;65970;50.476;4.840;2023-07-31T22:05:37;0.20;;;0.20;;
77038;SDS011;65970;50.476;4.840;2023-07-31T22:10:38;0.43;;;0.38;;
77038;SDS011;65970;50.476;4.840;2023-07-31T22:15:38;0.55;;;0.40;;
77038;SDS011;65970;50.476;4.840;2023-07-31T22:20:39;0.50;;;0.30;;
77038;SDS011;65970;50.476;4.840;2023-07-31T22:25:39;1.27;;;0.40;;
77038;SDS011;65970;50.476;4.840;2023-07-31T22:30:40;1.33;;;0.40;;
77038;SDS011;65970;50.476;4.840;2023-07-31T22:35:41;0.52;;;0.25;;
77038;SDS011;65970;50.476;4.840;2023-07-31T22:40:42;0.40;;;0.30;;
77038;SDS011;65970;50.476;4.840;2023-07-31T22:45:45;0.20;;;0.20;;
77038;SDS011;65970;50.476;4.840;2023-07-31T22:50:46;1.08;;;0.50;;
77038;SDS011;65970;50.476;4.840;2023-07-31T22:55:47;0.25;;;0.25;;
77038;SDS011;65970;50.476;4.840;2023-07-31T23:00:48;0.35;;;0.20;;
77038;SDS011;65970;50.476;4.840;2023-07-31T23:05:48;0.20;;;0.20;;
77038;SDS011;65970;50.476;4.840;2023-07-31T23:10:49;2.72;;;0.45;;
77038;SDS011;65970;50.476;4.840;2023-07-31T23:15:50;0.32;;;0.20;;
77038;SDS011;65970;50.476;4.840;2023-07-31T23:20:51;0.30;;;0.20;;
77038;SDS011;65970;50.476;4.840;2023-07-31T23:25:52;1.40;;;0.32;;
77038;SDS011;65970;50.476;4.840;2023-07-31T23:30:53;0.22;;;0.17;;
77038;SDS011;65970;50.476;4.840;2023-07-31T23:36:07;0.32;;;0.10;;
77038;SDS011;65970;50.476;4.840;2023-07-31T23:41:08;0.85;;;0.20;;
77038;SDS011;65970;50.476;4.840;2023-07-31T23:46:09;0.10;;;0.10;;
77038;SDS011;65970;50.476;4.840;2023-07-31T23:51:10;0.10;;;0.10;;
77038;SDS011;65970;50.476;4.840;2023-07-31T23:56:10;0.10;;;0.10;;
